Time;durP1;ratioP1;P1;durP2;ratioP2;P2;SDS_P1;SDS_P2;PMS_P1;PMS_P2;Temp;Humidity;BMP_temperature;BMP_pressure;BME280_temperature;BME280_humidity;BME280_pressure;Samples;Min_cycle;Max_cycle;Signal;HPM_P1;HPM_P2
2022/01/29 00:01:30;;;;;;;;;18.00;17.00;;;;;9.87;84.71;102802.19;4837475;29;46599;-82
2022/01/29 00:03:55;;;;;;;;;18.00;15.33;;;;;9.87;84.38;102798.63;4851293;29;45457;-82
2022/01/29 00:06:21;;;;;;;;;17.00;14.00;;;;;9.86;84.80;102791.50;4849835;29;45449;-82
2022/01/29 00:08:47;;;;;;;;;14.00;14.00;;;;;9.87;84.45;102790.66;4847496;29;44867;-82
2022/01/29 00:11:15;;;;;;;;;21.00;17.00;;;;;9.86;84.37;102786.19;4847953;29;45387;-81
2022/01/29 00:13:40;;;;;;;;;18.00;18.00;;;;;9.92;84.28;102791.81;4848608;29;45416;-80
2022/01/29 00:16:06;;;;;;;;;19.00;15.33;;;;;9.91;84.34;102788.22;4849018;29;45376;-82
2022/01/29 00:18:32;;;;;;;;;16.33;14.00;;;;;9.91;84.11;102782.91;4847168;29;45500;-82
2022/01/29 00:20:57;;;;;;;;;13.00;13.00;;;;;9.90;84.09;102774.88;4848099;29;45497;-82
2022/01/29 00:23:23;;;;;;;;;19.67;18.00;;;;;9.80;84.24;102761.13;4845522;29;45372;-81
2022/01/29 00:25:48;;;;;;;;;19.67;16.00;;;;;9.80;84.61;102765.53;4829273;29;45817;-81
2022/01/29 00:28:14;;;;;;;;;10.67;10.67;;;;;9.83;84.30;102763.03;4830329;29;45796;-81
2022/01/29 00:30:43;;;;;;;;;18.67;15.00;;;;;9.84;84.24;102758.59;4846420;29;46103;-81
2022/01/29 00:33:13;;;;;;;;;17.33;13.67;;;;;9.89;84.67;102765.97;4846430;29;45740;-81
2022/01/29 00:35:39;;;;;;;;;14.33;14.33;;;;;9.82;84.18;102750.59;4846730;29;45849;-80
2022/01/29 00:38:05;;;;;;;;;14.00;14.00;;;;;9.80;84.73;102752.25;4847164;29;45945;-81
2022/01/29 00:40:31;;;;;;;;;18.33;15.67;;;;;9.82;84.77;102751.47;4845332;29;47113;-82
2022/01/29 00:42:59;;;;;;;;;18.67;16.67;;;;;9.82;84.61;102751.47;4830873;29;45380;-81
2022/01/29 00:45:24;;;;;;;;;21.00;14.67;;;;;9.78;84.83;102745.94;4848463;29;45467;-82
2022/01/29 00:47:50;;;;;;;;;12.67;12.33;;;;;9.82;84.83;102748.81;4846740;29;45408;-81
2022/01/29 00:50:15;;;;;;;;;18.33;17.00;;;;;9.74;85.09;102744.88;4850556;29;45379;-81
2022/01/29 00:52:41;;;;;;;;;15.33;13.67;;;;;9.76;84.87;102745.88;4834862;29;45694;-81
2022/01/29 00:55:10;;;;;;;;;20.67;15.67;;;;;9.82;84.88;102740.84;4849233;29;45417;-81
2022/01/29 00:57:38;;;;;;;;;15.33;14.67;;;;;9.87;85.27;102746.38;4848404;29;45390;-80
2022/01/29 01:00:09;;;;;;;;;12.33;12.33;;;;;9.88;84.95;102734.03;4846463;29;47135;-80
2022/01/29 01:02:35;;;;;;;;;17.33;15.67;;;;;9.91;84.88;102734.16;4846412;29;46115;-81
2022/01/29 01:05:02;;;;;;;;;15.00;14.67;;;;;9.96;84.77;102737.97;4830327;29;45481;-81
2022/01/29 01:07:29;;;;;;;;;12.67;12.67;;;;;9.92;85.05;102725.38;4849241;29;45474;-82
2022/01/29 01:09:54;;;;;;;;;20.00;16.00;;;;;9.92;85.16;102730.69;4849735;29;46231;-81
2022/01/29 01:12:20;;;;;;;;;18.33;15.00;;;;;9.90;85.43;102721.72;4850436;29;45382;-83
2022/01/29 01:14:45;;;;;;;;;13.33;13.33;;;;;9.83;85.80;102717.84;4851254;29;45855;-81
2022/01/29 01:17:10;;;;;;;;;13.67;13.00;;;;;9.82;85.63;102722.25;4850979;29;45693;-82
2022/01/29 01:19:36;;;;;;;;;15.00;13.33;;;;;9.84;85.71;102732.97;4834859;29;48331;-81
2022/01/29 01:22:02;;;;;;;;;19.00;13.67;;;;;9.77;86.16;102721.09;4847041;29;45449;-82
2022/01/29 01:24:28;;;;;;;;;16.33;15.00;;;;;9.79;86.27;102735.38;4847152;29;45493;-82
2022/01/29 01:26:53;;;;;;;;;18.33;16.33;;;;;9.79;86.47;102732.72;4845474;29;45336;-82
2022/01/29 01:29:27;;;;;;;;;16.33;14.33;;;;;9.75;86.43;102722.78;4830028;29;47163;-82
2022/01/29 01:31:53;;;;;;;;;12.33;12.33;;;;;9.74;86.46;102712.09;4846502;29;45851;-81
2022/01/29 01:34:21;;;;;;;;;20.33;13.33;;;;;9.76;86.97;102716.63;4845590;29;45873;-81
2022/01/29 01:36:52;;;;;;;;;17.33;16.00;;;;;9.74;86.97;102723.63;4846167;29;45776;-82
2022/01/29 01:39:22;;;;;;;;;18.00;15.00;;;;;9.75;87.25;102716.56;4845018;29;47623;-81
2022/01/29 01:42:03;;;;;;;;;15.00;15.00;;;;;9.77;87.09;102715.78;4844958;29;45528;-81
2022/01/29 01:47:51;;;;;;;;;14.33;14.00;;;;;9.65;87.53;102704.56;4833379;29;45428;-82
2022/01/29 01:50:16;;;;;;;;;13.00;13.00;;;;;9.65;87.48;102708.97;4844827;29;45303;-82
2022/01/29 01:52:42;;;;;;;;;13.67;13.67;;;;;9.65;87.68;102698.34;4846972;29;45404;-81
2022/01/29 01:55:08;;;;;;;;;18.33;15.00;;;;;9.64;87.58;102700.09;4848140;29;45444;-81
2022/01/29 01:57:33;;;;;;;;;16.00;14.00;;;;;9.63;87.25;102703.56;4832854;29;45682;-81
2022/01/29 01:59:59;;;;;;;;;18.00;14.67;;;;;9.56;87.88;102704.13;4850577;29;46303;-82
2022/01/29 02:02:26;;;;;;;;;20.33;14.67;;;;;9.58;88.59;102707.75;4849535;29;46064;-81
2022/01/29 02:04:57;;;;;;;;;13.67;13.00;;;;;9.55;88.57;102705.88;4848341;29;45445;-81
2022/01/29 02:07:23;;;;;;;;;17.00;14.67;;;;;9.51;88.15;102700.31;4848158;29;45402;-82
2022/01/29 02:09:48;;;;;;;;;18.67;16.33;;;;;9.54;88.69;102705.78;4848782;29;46947;-82
2022/01/29 02:12:15;;;;;;;;;14.67;13.67;;;;;9.58;88.69;102697.13;4850149;29;45439;-81
2022/01/29 02:14:41;;;;;;;;;25.33;18.00;;;;;9.58;88.47;102697.13;4834236;29;45472;-81
2022/01/29 02:17:08;;;;;;;;;21.33;17.67;;;;;9.62;88.77;102688.50;4850211;29;45629;-81
2022/01/29 02:19:34;;;;;;;;;17.00;14.67;;;;;9.60;88.47;102679.53;4849827;29;45979;-80
2022/01/29 02:22:00;;;;;;;;;12.33;12.33;;;;;9.59;88.41;102677.69;4849533;29;45875;-81
2022/01/29 02:24:26;;;;;;;;;15.00;15.00;;;;;9.56;88.85;102677.56;4846708;29;45407;-81
2022/01/29 02:26:52;;;;;;;;;20.33;14.33;;;;;9.57;88.65;102679.38;4847900;29;45548;-83
2022/01/29 02:29:19;;;;;;;;;19.33;16.33;;;;;9.59;88.70;102673.31;4832170;29;47266;-81
2022/01/29 02:31:52;;;;;;;;;18.33;13.67;;;;;9.48;88.83;102645.31;4848059;29;44881;-80
2022/01/29 02:34:18;;;;;;;;;16.33;15.67;;;;;9.63;88.67;102668.13;4831254;29;45413;-81
2022/01/29 02:36:45;;;;;;;;;15.00;14.33;;;;;9.64;88.68;102660.25;4849231;29;45798;-80
2022/01/29 02:39:12;;;;;;;;;14.33;12.33;;;;;9.64;88.95;102657.59;4847515;29;47995;-82
2022/01/29 02:41:43;;;;;;;;;16.33;15.67;;;;;9.57;89.21;102636.88;4848442;29;45455;-81
2022/01/29 02:44:10;;;;;;;;;13.00;13.00;;;;;9.61;89.27;102638.84;4849243;29;46011;-81
2022/01/29 02:49:14;;;;;;;;;19.67;16.33;;;;;9.59;89.60;102640.50;4848529;29;46211;-80
2022/01/29 02:51:48;;;;;;;;;9.33;8.00;;;;;9.61;89.95;102638.84;4831313;29;45877;-81
2022/01/29 02:54:14;;;;;;;;;12.67;12.67;;;;;9.55;89.67;102627.91;4831778;29;45416;-81
2022/01/29 02:56:41;;;;;;;;;15.33;15.00;;;;;9.57;89.58;102639.53;4849013;29;45396;-80
2022/01/29 02:59:06;;;;;;;;;10.67;10.00;;;;;9.54;89.92;102620.78;4849063;29;46240;-81
2022/01/29 03:01:32;;;;;;;;;13.67;13.33;;;;;9.46;89.78;102615.09;4848758;29;45347;-81
2022/01/29 03:03:57;;;;;;;;;14.67;13.00;;;;;9.49;89.98;102611.69;4831412;29;45500;-81
2022/01/29 03:06:23;;;;;;;;;16.33;13.67;;;;;9.47;90.15;102613.34;4852529;29;45360;-82
2022/01/29 03:08:48;;;;;;;;;10.67;10.67;;;;;9.52;90.36;102606.53;4834128;29;48420;-81
2022/01/29 03:11:19;;;;;;;;;14.33;12.00;;;;;9.50;90.11;102613.50;4851458;29;44936;-81
2022/01/29 03:13:44;;;;;;;;;21.67;20.00;;;;;9.47;90.22;102600.97;4851799;29;45440;-83
2022/01/29 03:16:10;;;;;;;;;10.00;10.00;;;;;9.51;90.39;102604.69;4835644;29;45450;-80
2022/01/29 03:18:35;;;;;;;;;14.33;14.33;;;;;9.47;90.57;102594.75;4851964;29;45563;-81
2022/01/29 03:21:00;;;;;;;;;15.00;13.67;;;;;9.56;90.46;102597.88;4832029;29;45561;-80
2022/01/29 03:23:26;;;;;;;;;16.00;16.00;;;;;9.51;90.79;102599.38;4832216;29;45418;-83
2022/01/29 03:25:51;;;;;;;;;14.67;13.00;;;;;9.56;90.77;102597.88;4846646;29;45441;-81
2022/01/29 03:28:16;;;;;;;;;16.67;14.67;;;;;9.55;90.35;102604.00;4831976;29;47140;-81
2022/01/29 03:30:42;;;;;;;;;13.33;12.67;;;;;9.57;90.83;102605.00;4848883;29;45396;-82
2022/01/29 03:33:08;;;;;;;;;13.33;12.67;;;;;9.53;90.88;102608.34;4849583;29;45408;-82
2022/01/29 03:35:33;;;;;;;;;18.67;14.00;;;;;9.51;90.84;102600.28;4849110;29;45376;-82
2022/01/29 03:37:58;;;;;;;;;13.33;13.00;;;;;9.57;90.50;102599.69;4847739;29;48400;-82
2022/01/29 03:40:24;;;;;;;;;13.00;13.00;;;;;9.56;90.76;102604.09;4847341;29;46014;-82
2022/01/29 03:43:06;;;;;;;;;17.33;14.33;;;;;9.52;90.85;102595.91;4848046;29;45536;-81
2022/01/29 03:45:32;;;;;;;;;14.67;13.67;;;;;9.56;90.97;102608.50;4832081;29;45468;-81
2022/01/29 03:47:57;;;;;;;;;15.00;13.00;;;;;9.54;90.61;102600.44;4814640;29;46825;-81
2022/01/29 03:50:23;;;;;;;;;15.00;15.00;;;;;9.53;90.92;102589.75;4828227;29;45486;-81
2022/01/29 03:52:49;;;;;;;;;8.33;8.33;;;;;9.58;91.11;102589.13;4827412;29;45475;-81
2022/01/29 03:55:16;;;;;;;;;13.67;12.33;;;;;9.57;91.20;102583.75;4828199;29;45504;-82
2022/01/29 03:57:41;;;;;;;;;19.67;14.33;;;;;9.60;90.85;102600.75;4812194;29;47376;-81
2022/01/29 04:00:07;;;;;;;;;15.00;12.33;;;;;9.60;91.03;102587.47;4828267;29;45388;-81
2022/01/29 04:02:33;;;;;;;;;11.33;11.33;;;;;9.58;91.19;102583.81;4827434;29;45462;-81
2022/01/29 04:04:58;;;;;;;;;11.67;10.00;;;;;9.61;91.04;102594.59;4827615;29;45919;-81
2022/01/29 04:07:25;;;;;;;;;10.00;9.00;;;;;9.70;91.04;102591.47;4827270;29;47087;-81
2022/01/29 04:09:52;;;;;;;;;13.33;13.33;;;;;9.70;91.40;102596.78;4827720;29;45404;-81
2022/01/29 04:12:17;;;;;;;;;11.67;11.67;;;;;9.69;91.35;102589.63;4829026;29;45500;-81
2022/01/29 04:14:44;;;;;;;;;11.67;11.67;;;;;9.71;91.29;102593.28;4827902;29;45388;-81
2022/01/29 04:17:11;;;;;;;;;13.33;12.00;;;;;9.72;91.49;102587.13;4812265;29;47026;-81
2022/01/29 04:19:39;;;;;;;;;15.33;15.33;;;;;9.74;91.32;102593.44;4812152;29;45573;-82
2022/01/29 04:22:06;;;;;;;;;13.00;9.33;;;;;9.66;91.88;102567.34;4829932;29;45479;-80
2022/01/29 04:24:32;;;;;;;;;19.00;12.67;;;;;9.66;92.12;102578.88;4830393;29;44879;-81
2022/01/29 04:26:59;;;;;;;;;10.00;9.33;;;;;9.59;91.97;102582.06;4830243;29;46831;-81
2022/01/29 04:29:27;;;;;;;;;12.33;11.33;;;;;9.67;91.78;102585.09;4815425;29;45434;-82
2022/01/29 04:32:10;;;;;;;;;12.00;11.00;;;;;9.72;92.38;102595.09;4831453;29;44965;-82
2022/01/29 04:34:35;;;;;;;;;14.00;13.00;;;;;9.69;91.67;102584.31;4833206;29;45539;-81
2022/01/29 04:37:01;;;;;;;;;9.00;9.00;;;;;9.77;91.75;102596.22;4831453;29;46916;-82
2022/01/29 04:39:26;;;;;;;;;12.00;12.00;;;;;9.74;91.73;102588.13;4827844;29;45513;-82
2022/01/29 04:41:51;;;;;;;;;10.00;10.00;;;;;9.82;92.07;102592.03;4827890;29;45525;-82
2022/01/29 04:44:17;;;;;;;;;13.00;9.33;;;;;9.84;91.80;102583.22;4828049;29;45467;-82
2022/01/29 04:46:43;;;;;;;;;12.00;10.67;;;;;9.87;91.88;102588.69;4827421;29;45602;-81
2022/01/29 04:49:09;;;;;;;;;10.67;10.67;;;;;9.86;91.90;102584.22;4812979;29;45458;-82
2022/01/29 04:51:34;;;;;;;;;10.00;10.00;;;;;9.94;91.76;102590.81;4827915;29;45659;-81
2022/01/29 04:53:59;;;;;;;;;14.67;12.67;;;;;9.91;91.57;102578.25;4828417;29;45518;-81
2022/01/29 04:56:25;;;;;;;;;10.00;10.00;;;;;9.90;91.60;102576.47;4827160;29;48398;-81
2022/01/29 04:58:50;;;;;;;;;9.33;9.33;;;;;9.95;91.81;102577.56;4828109;29;45414;-81
2022/01/29 05:01:17;;;;;;;;;8.67;8.67;;;;;9.93;91.47;102562.38;4827574;29;44829;-80
2022/01/29 05:03:42;;;;;;;;;12.33;9.00;;;;;9.95;91.73;102577.56;4828882;29;45427;-81
2022/01/29 05:06:10;;;;;;;;;13.00;9.67;;;;;9.94;91.99;102580.19;4828183;29;46116;-81
2022/01/29 05:08:39;;;;;;;;;10.00;8.67;;;;;9.99;92.19;102582.19;4828289;29;45574;-81
2022/01/29 05:11:06;;;;;;;;;10.00;10.00;;;;;9.99;92.06;102592.81;4828382;29;45357;-81
2022/01/29 05:13:33;;;;;;;;;7.67;7.00;;;;;9.97;91.80;102588.28;4828193;29;45499;-81
2022/01/29 05:27:03;;;;;;;;;13.00;12.33;;;;;9.97;92.07;102572.31;4829208;29;45481;-82
2022/01/29 05:29:31;;;;;;;;;10.00;9.00;;;;;10.02;92.08;102576.13;4832837;29;45761;-81
2022/01/29 05:32:04;;;;;;;;;10.00;10.00;;;;;10.06;92.15;102577.16;4832238;29;45467;-83
2022/01/29 05:34:30;;;;;;;;;9.67;8.67;;;;;10.06;92.08;102579.81;4832814;29;45331;-82
2022/01/29 05:36:55;;;;;;;;;11.00;9.67;;;;;10.06;92.37;102586.06;4815488;29;45904;-82
2022/01/29 05:39:21;;;;;;;;;10.67;10.67;;;;;10.08;92.25;102576.41;4830445;29;45354;-81
2022/01/29 05:41:47;;;;;;;;;11.67;10.00;;;;;10.03;91.99;102567.28;4817228;29;45826;-80
2022/01/29 05:44:13;;;;;;;;;10.67;10.67;;;;;10.05;92.21;102567.38;4831428;29;45349;-81
2022/01/29 05:46:41;;;;;;;;;10.67;10.67;;;;;10.01;92.09;102561.88;4833033;29;47077;-81
2022/01/29 05:49:06;;;;;;;;;16.00;13.00;;;;;10.04;92.17;102565.53;4835203;29;45480;-82
2022/01/29 05:51:32;;;;;;;;;14.00;11.67;;;;;10.11;91.81;102568.53;4846022;29;45832;-82
2022/01/29 05:53:58;;;;;;;;;13.33;10.00;;;;;10.15;92.07;102564.28;4832809;29;45526;-82
2022/01/29 05:56:25;;;;;;;;;15.67;14.33;;;;;10.09;92.25;102564.91;4816407;29;47177;-81
2022/01/29 05:58:50;;;;;;;;;12.67;12.67;;;;;10.11;92.18;102571.19;4816995;29;46109;-81
2022/01/29 06:01:15;;;;;;;;;14.67;13.00;;;;;10.10;92.36;102571.13;4831795;29;45502;-82
2022/01/29 06:03:42;;;;;;;;;15.67;13.33;;;;;10.14;92.11;102568.69;4816838;29;45449;-81
2022/01/29 06:06:07;;;;;;;;;13.33;12.00;;;;;10.12;92.34;102570.38;4831834;29;48005;-82
2022/01/29 06:08:33;;;;;;;;;13.67;10.33;;;;;10.08;92.27;102557.78;4833232;29;45448;-81
2022/01/29 06:10:59;;;;;;;;;10.33;9.33;;;;;10.07;92.41;102544.41;4831314;29;45425;-81
2022/01/29 06:13:25;;;;;;;;;10.00;10.00;;;;;10.04;92.58;102544.25;4832300;29;45894;-80
2022/01/29 06:15:52;;;;;;;;;13.00;13.00;;;;;10.08;92.55;102538.25;4833862;29;45538;-81
2022/01/29 06:18:20;;;;;;;;;9.67;9.67;;;;;10.05;92.57;102540.78;4816799;29;45446;-82
2022/01/29 06:20:48;;;;;;;;;10.00;10.00;;;;;10.08;92.57;102544.50;4833012;29;45482;-81
2022/01/29 06:23:15;;;;;;;;;14.33;12.67;;;;;10.09;92.94;102548.97;4832819;29;45725;-82
2022/01/29 06:25:41;;;;;;;;;8.67;6.67;;;;;10.11;92.74;102568.53;4815142;29;47361;-82
2022/01/29 06:28:07;;;;;;;;;11.33;8.33;;;;;10.08;92.59;102559.50;4832408;29;45524;-82
2022/01/29 06:30:32;;;;;;;;;13.00;11.67;;;;;10.12;93.00;102550.84;4815243;29;45003;-82
2022/01/29 06:33:06;;;;;;;;;11.33;10.00;;;;;10.12;92.94;102556.16;4816050;29;45487;-81
2022/01/29 06:35:31;;;;;;;;;10.33;9.00;;;;;10.09;93.02;102564.91;4831861;29;45486;-82
2022/01/29 06:37:56;;;;;;;;;14.00;12.33;;;;;10.07;92.80;102558.59;4830525;29;45815;-82
2022/01/29 06:40:22;;;;;;;;;9.67;9.33;;;;;10.08;92.74;102557.78;4830526;29;45805;-81
2022/01/29 06:42:47;;;;;;;;;10.33;10.00;;;;;10.16;92.74;102556.38;4815114;29;45501;-82
2022/01/29 06:45:13;;;;;;;;;8.00;8.00;;;;;10.19;92.72;102553.84;4830286;29;45608;-82
2022/01/29 06:47:38;;;;;;;;;8.33;6.33;;;;;10.16;92.97;102551.06;4814330;29;45491;-81
2022/01/29 06:50:04;;;;;;;;;10.00;9.00;;;;;10.19;92.75;102547.63;4831406;29;45758;-80
2022/01/29 06:52:29;;;;;;;;;12.67;9.67;;;;;10.14;92.92;102549.16;4831186;29;45757;-80
2022/01/29 06:54:54;;;;;;;;;9.00;9.00;;;;;10.20;92.69;102547.69;4829931;29;46306;-81
2022/01/29 06:57:20;;;;;;;;;10.33;9.00;;;;;10.22;92.93;102547.78;4813542;29;45407;-81
2022/01/29 06:59:46;;;;;;;;;10.67;8.00;;;;;10.26;93.01;102546.13;4830349;29;48988;-81
2022/01/29 07:02:12;;;;;;;;;7.67;7.67;;;;;10.23;92.83;102546.03;4814499;29;45761;-81
2022/01/29 07:04:37;;;;;;;;;12.00;10.67;;;;;10.24;92.91;102553.13;4813541;29;47040;-82
2022/01/29 07:07:03;;;;;;;;;8.00;7.00;;;;;10.20;93.26;102547.69;4829462;29;45550;-81
2022/01/29 07:09:28;;;;;;;;;7.00;5.33;;;;;10.25;92.76;102561.19;4833526;29;45527;-81
2022/01/29 07:11:58;;;;;;;;;8.67;8.00;;;;;10.24;92.64;102551.41;4834495;29;45417;-81
2022/01/29 07:14:25;;;;;;;;;8.00;6.00;;;;;10.25;92.78;102533.69;4831682;29;47119;-83
2022/01/29 07:16:52;;;;;;;;;8.33;6.00;;;;;10.30;93.03;102542.81;4816440;29;46094;-81
2022/01/29 07:19:17;;;;;;;;;6.00;6.00;;;;;10.28;92.91;102540.06;4832017;29;44857;-81
2022/01/29 07:21:43;;;;;;;;;8.00;5.67;;;;;10.29;92.95;102536.56;4818028;29;45451;-82
2022/01/29 07:24:08;;;;;;;;;7.00;7.00;;;;;10.25;92.96;102536.34;4813314;29;47380;-81
2022/01/29 07:26:33;;;;;;;;;4.00;4.00;;;;;10.27;92.87;102532.91;4829530;29;45780;-82
2022/01/29 07:29:00;;;;;;;;;7.67;5.33;;;;;10.27;92.79;102532.00;4812754;29;45792;-82
2022/01/29 07:31:25;;;;;;;;;7.67;4.67;;;;;10.29;93.17;102541.88;4830222;29;45472;-81
2022/01/29 07:33:51;;;;;;;;;5.67;5.67;;;;;10.28;93.40;102533.81;4827276;29;46238;-81
2022/01/29 07:36:16;;;;;;;;;6.33;5.00;;;;;10.30;93.09;102537.47;4812589;29;45443;-81
2022/01/29 07:38:42;;;;;;;;;8.33;8.33;;;;;10.30;93.20;102543.75;4829999;29;45474;-81
2022/01/29 07:41:08;;;;;;;;;7.00;7.00;;;;;10.34;93.27;102542.09;4813749;29;45828;-82
2022/01/29 07:43:43;;;;;;;;;9.33;6.33;;;;;10.35;93.15;102542.19;4829232;29;45887;-80
2022/01/29 07:46:09;;;;;;;;;7.00;4.33;;;;;10.34;93.35;102550.06;4829692;29;45546;-81
2022/01/29 07:48:34;;;;;;;;;5.33;4.00;;;;;10.38;93.26;102552.03;4829708;29;45532;-81
2022/01/29 07:51:00;;;;;;;;;6.67;4.33;;;;;10.40;93.22;102555.66;4830264;29;44851;-82
2022/01/29 07:53:26;;;;;;;;;4.00;4.00;;;;;10.39;93.35;102549.44;4832142;29;47013;-82
2022/01/29 07:55:52;;;;;;;;;5.33;5.33;;;;;10.35;93.49;102534.19;4828131;29;45881;-82
2022/01/29 07:58:17;;;;;;;;;4.00;4.00;;;;;10.40;93.20;102531.72;4829759;29;45377;-81
2022/01/29 08:00:43;;;;;;;;;3.00;3.00;;;;;10.47;93.58;102544.47;4829612;29;45441;-81
2022/01/29 08:03:08;;;;;;;;;6.67;6.67;;;;;10.45;93.44;102538.16;4812647;29;47879;-81
2022/01/29 08:05:41;;;;;;;;;7.00;7.00;;;;;10.50;93.63;102533.03;4813083;29;45510;-81
2022/01/29 08:08:07;;;;;;;;;4.00;4.00;;;;;10.56;93.50;102539.56;4829365;29;45446;-81
2022/01/29 08:10:33;;;;;;;;;7.00;7.00;;;;;10.63;93.69;102534.50;4829886;29;45876;-81
2022/01/29 08:12:58;;;;;;;;;5.00;5.00;;;;;10.64;93.57;102537.19;4814350;29;46929;-81
2022/01/29 08:15:24;;;;;;;;;3.00;3.00;;;;;10.63;93.90;102524.75;4831254;29;45734;-81
2022/01/29 08:17:51;;;;;;;;;4.33;4.33;;;;;10.68;93.73;102530.25;4814095;29;45432;-81
2022/01/29 08:20:16;;;;;;;;;3.67;3.67;;;;;10.66;93.81;102526.63;4831134;29;44895;-81
2022/01/29 08:22:41;;;;;;;;;5.33;4.67;;;;;10.63;93.71;102527.41;4815175;29;48128;-81
2022/01/29 08:25:07;;;;;;;;;7.00;4.33;;;;;10.67;94.06;102532.03;4829783;29;45814;-81
2022/01/29 08:27:33;;;;;;;;;5.67;3.67;;;;;10.67;93.70;102529.34;4811655;29;45551;-81
2022/01/29 08:29:58;;;;;;;;;4.00;3.67;;;;;10.68;93.85;102524.94;4829659;29;45948;-81
2022/01/29 08:32:23;;;;;;;;;3.00;3.00;;;;;10.76;93.74;102531.50;4828921;29;45793;-81
2022/01/29 08:34:49;;;;;;;;;4.67;4.67;;;;;10.80;93.88;102533.44;4813142;29;45520;-82
2022/01/29 08:37:15;;;;;;;;;2.00;2.00;;;;;10.83;93.64;102536.25;4816475;29;45548;-82
2022/01/29 08:39:41;;;;;;;;;4.00;4.00;;;;;10.82;93.85;102534.41;4833037;29;45437;-83
2022/01/29 08:42:08;;;;;;;;;5.67;5.67;;;;;10.85;93.85;102539.88;4832895;29;46005;-81
2022/01/29 08:44:34;;;;;;;;;3.67;3.67;;;;;10.80;93.84;102528.09;4832457;29;45430;-81
2022/01/29 08:46:59;;;;;;;;;3.67;3.67;;;;;10.84;93.67;102524.72;4800774;29;45426;-80
2022/01/29 08:49:25;;;;;;;;;4.00;4.00;;;;;10.88;94.22;102537.31;4816365;29;45480;-80
2022/01/29 08:51:53;;;;;;;;;4.00;4.00;;;;;10.94;93.58;102532.25;4811486;29;47422;-82
2022/01/29 08:54:18;;;;;;;;;3.00;3.00;;;;;10.93;93.71;102525.13;4811899;29;45803;-81
2022/01/29 08:56:44;;;;;;;;;4.00;4.00;;;;;10.91;93.81;102526.81;4829133;29;45810;-82
2022/01/29 08:59:10;;;;;;;;;4.00;4.00;;;;;10.93;93.61;102530.44;4812207;29;45677;-81
2022/01/29 09:01:36;;;;;;;;;3.00;3.00;;;;;10.93;93.70;102522.47;4813410;29;47063;-82
2022/01/29 09:04:03;;;;;;;;;4.00;3.33;;;;;11.01;93.67;102523.69;4817970;29;46033;-82
2022/01/29 09:06:28;;;;;;;;;4.00;3.00;;;;;11.04;93.49;102522.00;4817469;29;45762;-82
2022/01/29 09:08:54;;;;;;;;;2.00;2.00;;;;;11.01;93.40;102521.03;4832336;29;45639;-82
2022/01/29 09:11:20;;;;;;;;;6.33;3.00;;;;;11.02;93.53;102527.25;4818073;29;47100;-81
2022/01/29 09:13:46;;;;;;;;;3.00;3.00;;;;;11.07;93.44;102530.09;4819244;29;45561;-81
2022/01/29 09:16:11;;;;;;;;;3.00;3.00;;;;;11.11;93.28;102526.69;4820164;29;45555;-81
2022/01/29 09:18:38;;;;;;;;;4.00;4.00;;;;;11.15;93.16;102528.63;4819436;29;45573;-81
2022/01/29 09:21:04;;;;;;;;;5.00;5.00;;;;;11.15;93.36;102524.25;4836291;29;45854;-81
2022/01/29 09:23:29;;;;;;;;;2.00;2.00;;;;;11.24;93.17;102526.38;4834554;29;45589;-81
2022/01/29 09:25:55;;;;;;;;;5.67;4.00;;;;;11.25;92.98;102520.22;4834173;29;46039;-82
2022/01/29 09:28:23;;;;;;;;;7.33;5.00;;;;;11.37;92.92;102517.09;4817631;29;45481;-82
2022/01/29 09:30:49;;;;;;;;;4.00;3.00;;;;;11.41;92.87;102511.03;4816899;29;46834;-80
2022/01/29 09:33:16;;;;;;;;;3.00;3.00;;;;;11.51;92.54;102512.31;4833900;29;45454;-81
2022/01/29 09:35:42;;;;;;;;;7.00;4.00;;;;;11.56;92.30;102506.31;4817824;29;45565;-82
2022/01/29 09:38:10;;;;;;;;;6.33;4.33;;;;;11.66;92.13;102512.91;4817501;29;45511;-81
2022/01/29 09:40:37;;;;;;;;;12.67;10.33;;;;;11.66;91.91;102499.56;4833672;29;45359;-82
2022/01/29 09:43:05;;;;;;;;;4.00;4.00;;;;;11.70;92.14;102513.94;4818384;29;45420;-81
2022/01/29 09:45:32;;;;;;;;;3.33;3.00;;;;;11.71;91.91;102515.72;4817960;29;45471;-81
2022/01/29 09:48:02;;;;;;;;;2.33;2.33;;;;;11.70;91.74;102496.19;4835142;29;45460;-81
2022/01/29 09:50:29;;;;;;;;;3.67;3.67;;;;;11.78;91.82;102507.13;4833285;29;46979;-81
2022/01/29 09:56:16;;;;;;;;;6.67;5.00;;;;;11.72;91.75;102513.13;4837168;29;45344;-82
2022/01/29 09:58:43;;;;;;;;;3.00;3.00;;;;;11.78;91.86;102512.47;4854996;29;45387;-81
2022/01/29 10:01:08;;;;;;;;;3.33;3.33;;;;;11.74;91.71;102513.19;4837031;29;47369;-80
2022/01/29 10:03:34;;;;;;;;;3.33;3.33;;;;;11.79;91.98;102527.59;4834832;29;45463;-81
2022/01/29 10:06:01;;;;;;;;;4.00;4.00;;;;;11.79;91.71;102530.25;4835409;29;46014;-82
2022/01/29 10:08:28;;;;;;;;;3.67;3.67;;;;;11.84;91.77;102528.69;4833663;29;45567;-82
2022/01/29 10:10:56;;;;;;;;;3.00;3.00;;;;;11.88;91.78;102519.06;4817329;29;48040;-82
2022/01/29 10:13:22;;;;;;;;;4.67;4.00;;;;;11.97;91.56;102519.41;4814310;29;45500;-82
2022/01/29 10:15:48;;;;;;;;;3.33;3.33;;;;;11.98;91.73;102518.56;4829831;29;45540;-82
2022/01/29 10:18:23;;;;;;;;;7.67;6.33;;;;;11.97;91.52;102509.66;4830731;29;45468;-82
2022/01/29 10:20:56;;;;;;;;;5.00;4.00;;;;;11.99;91.60;102515.03;4830103;29;45270;-82
2022/01/29 10:23:28;;;;;;;;;3.33;3.33;;;;;12.07;91.65;102518.91;4829402;29;45830;-82
2022/01/29 10:25:54;;;;;;;;;8.33;7.00;;;;;12.11;91.64;102522.59;4829751;29;45810;-81
2022/01/29 10:28:21;;;;;;;;;2.00;2.00;;;;;12.21;91.54;102524.72;4813477;29;45426;-81
2022/01/29 10:30:49;;;;;;;;;3.67;3.33;;;;;12.35;91.24;102523.47;4829535;29;45431;-81
2022/01/29 10:33:26;;;;;;;;;4.00;4.00;;;;;12.38;91.00;102518.25;4830346;29;45566;-81
2022/01/29 10:35:54;;;;;;;;;4.00;2.33;;;;;12.50;90.73;102523.13;4831992;29;44782;-82
2022/01/29 10:38:42;;;;;;;;;4.67;4.67;;;;;12.54;90.47;102519.69;4831223;29;45795;-83
2022/01/29 10:41:26;;;;;;;;;6.33;4.00;;;;;12.59;90.20;102518.06;4822062;29;47097;-82
2022/01/29 10:44:33;;;;;;;;;4.00;4.00;;;;;12.66;90.11;102523.63;4812939;29;45860;-82
2022/01/29 10:46:55;;;;;;;;;4.00;4.00;;;;;12.57;89.89;102506.44;4830637;29;45463;-82
2022/01/29 10:49:25;;;;;;;;;3.00;3.00;;;;;12.57;89.83;102509.09;4831457;29;44857;-82
2022/01/29 10:51:58;;;;;;;;;2.00;2.00;;;;;12.63;89.92;102518.19;4815684;29;48431;-80
2022/01/29 10:54:25;;;;;;;;;4.00;2.33;;;;;12.55;90.00;102509.91;4831968;29;44787;-81
2022/01/29 10:56:58;;;;;;;;;2.33;2.33;;;;;12.58;89.95;102523.34;4814596;29;45408;-81
2022/01/29 10:59:25;;;;;;;;;2.00;2.00;;;;;12.57;89.64;102519.78;4832399;29;45783;-81
2022/01/29 11:01:53;;;;;;;;;1.00;1.00;;;;;12.57;89.82;102519.78;4831619;29;46284;-81
2022/01/29 11:04:19;;;;;;;;;2.67;2.67;;;;;12.56;89.94;102517.97;4813568;29;45742;-81
2022/01/29 11:06:47;;;;;;;;;3.67;3.67;;;;;12.56;89.69;102517.06;4831139;29;45456;-81
2022/01/29 11:09:13;;;;;;;;;2.00;2.00;;;;;12.55;90.14;102516.16;4814242;29;45414;-81
2022/01/29 11:11:45;;;;;;;;;3.00;3.00;;;;;12.59;90.03;102526.06;4815253;29;47052;-80
2022/01/29 11:14:13;;;;;;;;;3.00;3.00;;;;;12.56;90.07;102527.72;4832721;29;45485;-80
2022/01/29 11:16:41;;;;;;;;;3.00;3.00;;;;;12.48;90.32;102521.22;4831727;29;45448;-81
2022/01/29 11:19:07;;;;;;;;;4.33;4.33;;;;;12.45;90.35;102534.47;4830821;29;45861;-81
2022/01/29 11:21:35;;;;;;;;;13.00;11.33;;;;;12.41;90.58;102522.78;4833476;29;45601;-81
2022/01/29 11:24:01;;;;;;;;;4.00;4.00;;;;;12.33;90.67;102513.59;4819304;29;45639;-81
2022/01/29 11:26:30;;;;;;;;;4.00;4.00;;;;;12.32;91.36;102525.09;4816286;29;45457;-80
2022/01/29 11:29:21;;;;;;;;;6.67;6.00;;;;;12.37;90.99;102526.19;4832710;29;45919;-82
2022/01/29 11:31:48;;;;;;;;;3.00;3.00;;;;;12.39;91.44;102525.38;4825715;29;45551;-81
2022/01/29 11:34:13;;;;;;;;;2.33;2.00;;;;;12.38;90.90;102523.59;4815766;29;45371;-82
2022/01/29 11:36:48;;;;;;;;;6.00;3.00;;;;;12.43;91.30;102522.84;4829838;29;45397;-82
2022/01/29 11:39:33;;;;;;;;;2.00;2.00;;;;;12.45;91.04;102518.47;4830359;29;45494;-82